ENAL/AES METAR and TAF weather

Enter ICAO airport designator
Station Type Date Time Source
ENAL METAR 2021/09/24 03:50 UTC NOAA

ENAL 240350Z AUTO 16008KT 9999 SCT047/// BKN072/// 08/05 Q0998


Station Type Date Time Source
ENAL Decoded METAR 2021/09/24 03:50 UTC NOAA

Alesund / Vigra, Norway (ENAL) 62-34N 006-07E 22M
Sep 23, 2021 - 11:50 PM EDT / 2021.09.24 0350 UTC
Wind: from the SSE (160 degrees) at 9 MPH (8 KT):0
Visibility: greater than 7 mile(s):0
Sky conditions: mostly cloudy
Temperature: 46 F (8 C)
Dew Point: 41 F (5 C)
Relative Humidity: 81%
Pressure (altimeter): 29.47 in. Hg (0998 hPa)
ob: ENAL 240350Z AUTO 16008KT 9999 SCT047/// BKN072/// 08/05 Q0998
cycle: 4

Station Type Date Time Source
ENAL TAF UTC NOAA

Error!

Example: see airport list